sensor_id;sensor_type;location;lat;lon;timestamp;temperature;humidity
7684;DHT22;3884;48.616;12.872;2023-02-28T00:00:10;-2.10;81.90
7684;DHT22;3884;48.616;12.872;2023-02-28T00:02:39;-2.10;84.90
7684;DHT22;3884;48.616;12.872;2023-02-28T00:05:08;-2.20;99.00
7684;DHT22;3884;48.616;12.872;2023-02-28T00:07:36;-2.10;99.90
7684;DHT22;3884;48.616;12.872;2023-02-28T00:10:04;-2.20;99.90
7684;DHT22;3884;48.616;12.872;2023-02-28T00:12:34;-2.10;79.90
7684;DHT22;3884;48.616;12.872;2023-02-28T00:15:02;-2.20;99.90
7684;DHT22;3884;48.616;12.872;2023-02-28T00:17:29;-2.10;99.90
7684;DHT22;3884;48.616;12.872;2023-02-28T00:19:56;-2.10;99.90
7684;DHT22;3884;48.616;12.872;2023-02-28T00:22:27;-2.10;99.90
7684;DHT22;3884;48.616;12.872;2023-02-28T00:24:54;-2.10;99.90
7684;DHT22;3884;48.616;12.872;2023-02-28T00:27:21;-2.10;99.90
7684;DHT22;3884;48.616;12.872;2023-02-28T00:29:50;-2.10;99.90
7684;DHT22;3884;48.616;12.872;2023-02-28T00:32:17;-2.10;99.90
7684;DHT22;3884;48.616;12.872;2023-02-28T00:34:44;-2.10;99.90
7684;DHT22;3884;48.616;12.872;2023-02-28T00:37:11;-2.10;99.90
7684;DHT22;3884;48.616;12.872;2023-02-28T00:39:39;-2.10;99.90
7684;DHT22;3884;48.616;12.872;2023-02-28T00:42:07;-2.10;99.90
7684;DHT22;3884;48.616;12.872;2023-02-28T00:44:34;-2.10;99.90
7684;DHT22;3884;48.616;12.872;2023-02-28T00:47:02;-2.10;99.90
7684;DHT22;3884;48.616;12.872;2023-02-28T00:49:29;-2.10;99.90
7684;DHT22;3884;48.616;12.872;2023-02-28T00:51:57;-2.20;99.90
7684;DHT22;3884;48.616;12.872;2023-02-28T00:54:26;-2.20;99.90
7684;DHT22;3884;48.616;12.872;2023-02-28T00:56:53;-2.20;99.90
7684;DHT22;3884;48.616;12.872;2023-02-28T00:59:20;-2.20;99.90
7684;DHT22;3884;48.616;12.872;2023-02-28T01:01:47;-2.20;99.90
7684;DHT22;3884;48.616;12.872;2023-02-28T01:04:16;-2.10;99.90
7684;DHT22;3884;48.616;12.872;2023-02-28T01:06:43;-2.20;99.90
7684;DHT22;3884;48.616;12.872;2023-02-28T01:09:10;-2.20;99.90
7684;DHT22;3884;48.616;12.872;2023-02-28T01:11:38;-2.20;99.90
7684;DHT22;3884;48.616;12.872;2023-02-28T01:14:08;-2.20;99.90
7684;DHT22;3884;48.616;12.872;2023-02-28T01:16:36;-2.20;99.90
7684;DHT22;3884;48.616;12.872;2023-02-28T01:19:03;-2.20;99.90
7684;DHT22;3884;48.616;12.872;2023-02-28T01:21:32;-2.20;99.90
7684;DHT22;3884;48.616;12.872;2023-02-28T01:24:01;-2.20;99.90
7684;DHT22;3884;48.616;12.872;2023-02-28T01:26:28;-2.20;99.90
7684;DHT22;3884;48.616;12.872;2023-02-28T01:28:55;-2.20;99.90
7684;DHT22;3884;48.616;12.872;2023-02-28T01:31:22;-2.20;99.90
7684;DHT22;3884;48.616;12.872;2023-02-28T01:33:50;-2.20;99.90
7684;DHT22;3884;48.616;12.872;2023-02-28T01:36:19;-2.20;1.00
7684;DHT22;3884;48.616;12.872;2023-02-28T01:38:49;-2.20;1.00
7684;DHT22;3884;48.616;12.872;2023-02-28T01:41:19;-2.20;1.00
7684;DHT22;3884;48.616;12.872;2023-02-28T01:43:58;-2.20;1.00
7684;DHT22;3884;48.616;12.872;2023-02-28T01:46:29;-2.20;1.00
7684;DHT22;3884;48.616;12.872;2023-02-28T01:49:03;-2.20;1.00
7684;DHT22;3884;48.616;12.872;2023-02-28T01:51:35;-2.20;1.00
7684;DHT22;3884;48.616;12.872;2023-02-28T01:54:08;-2.20;1.00
7684;DHT22;3884;48.616;12.872;2023-02-28T01:56:43;-2.20;1.00
7684;DHT22;3884;48.616;12.872;2023-02-28T01:59:13;-2.30;1.00
7684;DHT22;3884;48.616;12.872;2023-02-28T02:01:41;-2.30;1.00
7684;DHT22;3884;48.616;12.872;2023-02-28T02:04:09;-2.30;1.00
7684;DHT22;3884;48.616;12.872;2023-02-28T02:06:42;-2.30;1.00
7684;DHT22;3884;48.616;12.872;2023-02-28T02:09:12;-2.30;1.00
7684;DHT22;3884;48.616;12.872;2023-02-28T02:11:40;-2.20;1.00
7684;DHT22;3884;48.616;12.872;2023-02-28T02:14:30;-2.30;1.00
7684;DHT22;3884;48.616;12.872;2023-02-28T02:17:15;-2.30;1.00
7684;DHT22;3884;48.616;12.872;2023-02-28T02:25:57;-2.30;1.00
7684;DHT22;3884;48.616;12.872;2023-02-28T02:28:55;-2.30;1.00
7684;DHT22;3884;48.616;12.872;2023-02-28T02:32:01;-2.30;1.00
7684;DHT22;3884;48.616;12.872;2023-02-28T02:34:44;-2.30;1.00
7684;DHT22;3884;48.616;12.872;2023-02-28T02:37:24;-2.30;1.00
7684;DHT22;3884;48.616;12.872;2023-02-28T02:39:59;-2.40;1.00
7684;DHT22;3884;48.616;12.872;2023-02-28T02:42:31;-2.40;1.00
7684;DHT22;3884;48.616;12.872;2023-02-28T02:45:08;-2.40;1.00
7684;DHT22;3884;48.616;12.872;2023-02-28T02:47:36;-2.40;1.00
7684;DHT22;3884;48.616;12.872;2023-02-28T02:50:08;-2.50;9.10
7684;DHT22;3884;48.616;12.872;2023-02-28T02:52:42;-2.50;1.00
7684;DHT22;3884;48.616;12.872;2023-02-28T02:55:11;-2.40;1.00
7684;DHT22;3884;48.616;12.872;2023-02-28T02:57:45;-2.50;1.00
7684;DHT22;3884;48.616;12.872;2023-02-28T03:00:15;-2.40;1.00
7684;DHT22;3884;48.616;12.872;2023-02-28T03:02:45;-2.30;1.00
7684;DHT22;3884;48.616;12.872;2023-02-28T03:05:19;-2.30;1.00
7684;DHT22;3884;48.616;12.872;2023-02-28T03:07:47;-2.40;1.00
7684;DHT22;3884;48.616;12.872;2023-02-28T03:10:30;-2.30;1.00
7684;DHT22;3884;48.616;12.872;2023-02-28T03:16:23;-2.30;1.00
7684;DHT22;3884;48.616;12.872;2023-02-28T03:19:01;-2.30;1.00
7684;DHT22;3884;48.616;12.872;2023-02-28T03:21:37;-2.30;1.00
7684;DHT22;3884;48.616;12.872;2023-02-28T03:24:08;-2.30;1.00
7684;DHT22;3884;48.616;12.872;2023-02-28T03:26:40;-2.20;1.00
7684;DHT22;3884;48.616;12.872;2023-02-28T03:29:15;-2.20;1.00
7684;DHT22;3884;48.616;12.872;2023-02-28T03:31:50;-2.30;1.00
7684;DHT22;3884;48.616;12.872;2023-02-28T03:34:22;-2.30;1.00
7684;DHT22;3884;48.616;12.872;2023-02-28T03:36:54;-2.30;1.00
7684;DHT22;3884;48.616;12.872;2023-02-28T03:39:27;-2.30;1.00
7684;DHT22;3884;48.616;12.872;2023-02-28T03:41:58;-2.30;1.00
7684;DHT22;3884;48.616;12.872;2023-02-28T03:44:30;-2.30;1.00
7684;DHT22;3884;48.616;12.872;2023-02-28T03:47:02;-2.30;1.00
7684;DHT22;3884;48.616;12.872;2023-02-28T03:49:33;-2.40;1.00
7684;DHT22;3884;48.616;12.872;2023-02-28T03:52:06;-2.40;1.00
7684;DHT22;3884;48.616;12.872;2023-02-28T03:54:38;-2.40;1.00
7684;DHT22;3884;48.616;12.872;2023-02-28T03:57:12;-2.40;1.00
7684;DHT22;3884;48.616;12.872;2023-02-28T03:59:45;-2.40;1.00
7684;DHT22;3884;48.616;12.872;2023-02-28T04:02:13;-2.40;1.00
7684;DHT22;3884;48.616;12.872;2023-02-28T04:04:41;-2.40;1.00
7684;DHT22;3884;48.616;12.872;2023-02-28T04:07:12;-2.50;1.00
7684;DHT22;3884;48.616;12.872;2023-02-28T04:09:39;-2.40;1.00
7684;DHT22;3884;48.616;12.872;2023-02-28T04:12:07;-2.50;1.00
7684;DHT22;3884;48.616;12.872;2023-02-28T04:14:34;-2.50;1.00
7684;DHT22;3884;48.616;12.872;2023-02-28T04:17:01;-2.60;1.00
7684;DHT22;3884;48.616;12.872;2023-02-28T04:19:28;-2.70;1.00
7684;DHT22;3884;48.616;12.872;2023-02-28T04:21:55;-2.70;1.00
7684;DHT22;3884;48.616;12.872;2023-02-28T04:24:25;-2.70;1.00
7684;DHT22;3884;48.616;12.872;2023-02-28T04:26:54;-2.60;1.00
7684;DHT22;3884;48.616;12.872;2023-02-28T04:29:23;-2.70;1.00
7684;DHT22;3884;48.616;12.872;2023-02-28T04:31:50;-2.60;1.00
7684;DHT22;3884;48.616;12.872;2023-02-28T04:34:19;-2.80;1.00
7684;DHT22;3884;48.616;12.872;2023-02-28T04:36:46;-2.90;1.00
7684;DHT22;3884;48.616;12.872;2023-02-28T04:39:19;-2.80;1.00
7684;DHT22;3884;48.616;12.872;2023-02-28T04:41:47;-2.80;1.00
7684;DHT22;3884;48.616;12.872;2023-02-28T04:44:15;-2.70;1.00
7684;DHT22;3884;48.616;12.872;2023-02-28T04:46:42;-2.70;1.00
7684;DHT22;3884;48.616;12.872;2023-02-28T04:49:11;-2.60;1.00
7684;DHT22;3884;48.616;12.872;2023-02-28T04:51:38;-2.70;1.00
7684;DHT22;3884;48.616;12.872;2023-02-28T04:54:06;-2.70;1.00
7684;DHT22;3884;48.616;12.872;2023-02-28T04:56:33;-2.70;1.00
7684;DHT22;3884;48.616;12.872;2023-02-28T04:59:02;-2.70;1.00
7684;DHT22;3884;48.616;12.872;2023-02-28T05:01:32;-2.70;1.00
7684;DHT22;3884;48.616;12.872;2023-02-28T05:04:01;-2.80;1.00
7684;DHT22;3884;48.616;12.872;2023-02-28T05:06:30;-2.70;1.00
7684;DHT22;3884;48.616;12.872;2023-02-28T05:08:57;-2.70;1.00
7684;DHT22;3884;48.616;12.872;2023-02-28T05:11:25;-2.70;1.00
7684;DHT22;3884;48.616;12.872;2023-02-28T05:13:54;-2.70;1.00
7684;DHT22;3884;48.616;12.872;2023-02-28T05:16:23;-2.80;1.00
7684;DHT22;3884;48.616;12.872;2023-02-28T05:18:50;-2.80;1.00
7684;DHT22;3884;48.616;12.872;2023-02-28T05:21:28;-2.80;1.00
7684;DHT22;3884;48.616;12.872;2023-02-28T05:23:56;-2.90;1.00
7684;DHT22;3884;48.616;12.872;2023-02-28T05:26:23;-2.90;1.00
7684;DHT22;3884;48.616;12.872;2023-02-28T05:28:50;-2.90;1.00
7684;DHT22;3884;48.616;12.872;2023-02-28T05:31:18;-3.00;1.00
7684;DHT22;3884;48.616;12.872;2023-02-28T05:33:46;-3.10;1.00
7684;DHT22;3884;48.616;12.872;2023-02-28T05:36:13;-3.00;1.00
7684;DHT22;3884;48.616;12.872;2023-02-28T05:38:40;-2.90;1.00
7684;DHT22;3884;48.616;12.872;2023-02-28T05:41:08;-2.90;1.00
7684;DHT22;3884;48.616;12.872;2023-02-28T05:43:35;-2.80;1.00
7684;DHT22;3884;48.616;12.872;2023-02-28T05:46:04;-2.90;1.00
7684;DHT22;3884;48.616;12.872;2023-02-28T05:48:31;-2.90;1.00
7684;DHT22;3884;48.616;12.872;2023-02-28T05:51:00;-2.90;1.00
7684;DHT22;3884;48.616;12.872;2023-02-28T05:53:28;-2.90;1.00
7684;DHT22;3884;48.616;12.872;2023-02-28T05:55:56;-2.80;1.00
7684;DHT22;3884;48.616;12.872;2023-02-28T05:58:24;-2.80;1.00
7684;DHT22;3884;48.616;12.872;2023-02-28T06:00:55;-2.80;1.00
7684;DHT22;3884;48.616;12.872;2023-02-28T06:03:22;-2.80;99.90
7684;DHT22;3884;48.616;12.872;2023-02-28T06:05:49;-2.80;99.90
7684;DHT22;3884;48.616;12.872;2023-02-28T06:08:18;-2.80;99.90
7684;DHT22;3884;48.616;12.872;2023-02-28T06:10:45;-2.80;99.90
7684;DHT22;3884;48.616;12.872;2023-02-28T06:13:12;-2.70;99.90
7684;DHT22;3884;48.616;12.872;2023-02-28T06:15:39;-2.80;99.90
7684;DHT22;3884;48.616;12.872;2023-02-28T06:18:10;-2.70;99.90
7684;DHT22;3884;48.616;12.872;2023-02-28T06:20:37;-2.80;99.90
7684;DHT22;3884;48.616;12.872;2023-02-28T06:23:04;-2.70;99.90
7684;DHT22;3884;48.616;12.872;2023-02-28T06:25:33;-2.80;99.90
7684;DHT22;3884;48.616;12.872;2023-02-28T06:28:00;-2.80;1.00
7684;DHT22;3884;48.616;12.872;2023-02-28T06:30:27;-2.80;1.00
7684;DHT22;3884;48.616;12.872;2023-02-28T06:32:56;-2.80;1.00
7684;DHT22;3884;48.616;12.872;2023-02-28T06:35:23;-2.70;99.90
7684;DHT22;3884;48.616;12.872;2023-02-28T06:37:50;-2.60;99.90
7684;DHT22;3884;48.616;12.872;2023-02-28T06:40:17;-2.50;99.90
7684;DHT22;3884;48.616;12.872;2023-02-28T06:42:46;-2.50;99.90
7684;DHT22;3884;48.616;12.872;2023-02-28T06:45:13;-2.50;99.90
7684;DHT22;3884;48.616;12.872;2023-02-28T06:47:41;-2.40;99.90
7684;DHT22;3884;48.616;12.872;2023-02-28T06:50:11;-2.40;99.90
7684;DHT22;3884;48.616;12.872;2023-02-28T06:52:38;-2.30;99.90
7684;DHT22;3884;48.616;12.872;2023-02-28T06:55:06;-2.30;99.90
7684;DHT22;3884;48.616;12.872;2023-02-28T06:57:34;-2.20;99.90
7684;DHT22;3884;48.616;12.872;2023-02-28T07:00:06;-2.20;99.90
7684;DHT22;3884;48.616;12.872;2023-02-28T07:02:34;-2.10;99.90
7684;DHT22;3884;48.616;12.872;2023-02-28T07:05:01;-2.10;99.90
7684;DHT22;3884;48.616;12.872;2023-02-28T07:07:28;-2.00;99.90
7684;DHT22;3884;48.616;12.872;2023-02-28T07:09:55;-2.00;99.90
7684;DHT22;3884;48.616;12.872;2023-02-28T07:12:22;-1.90;99.90
7684;DHT22;3884;48.616;12.872;2023-02-28T07:14:49;-1.90;99.90
7684;DHT22;3884;48.616;12.872;2023-02-28T07:17:18;-1.80;99.90
7684;DHT22;3884;48.616;12.872;2023-02-28T07:19:45;-1.70;99.90
7684;DHT22;3884;48.616;12.872;2023-02-28T07:22:12;-1.70;99.90
7684;DHT22;3884;48.616;12.872;2023-02-28T07:24:39;-1.60;99.90
7684;DHT22;3884;48.616;12.872;2023-02-28T07:27:06;-1.50;99.90
7684;DHT22;3884;48.616;12.872;2023-02-28T07:29:33;-1.40;95.60
7684;DHT22;3884;48.616;12.872;2023-02-28T07:32:00;-1.30;75.60
7684;DHT22;3884;48.616;12.872;2023-02-28T07:34:29;-1.20;67.60
7684;DHT22;3884;48.616;12.872;2023-02-28T07:36:56;-1.20;54.10
7684;DHT22;3884;48.616;12.872;2023-02-28T07:39:23;-1.10;25.90
7684;DHT22;3884;48.616;12.872;2023-02-28T07:41:50;-1.00;27.60
7684;DHT22;3884;48.616;12.872;2023-02-28T07:44:17;-1.00;13.40
7684;DHT22;3884;48.616;12.872;2023-02-28T07:46:44;-1.00;20.90
7684;DHT22;3884;48.616;12.872;2023-02-28T07:49:11;-0.90;13.80
7684;DHT22;3884;48.616;12.872;2023-02-28T07:51:39;-0.80;5.50
7684;DHT22;3884;48.616;12.872;2023-02-28T07:54:07;-0.80;1.00
7684;DHT22;3884;48.616;12.872;2023-02-28T07:56:34;-0.70;1.00
7684;DHT22;3884;48.616;12.872;2023-02-28T07:59:01;-0.70;1.00
7684;DHT22;3884;48.616;12.872;2023-02-28T08:01:28;-0.60;1.00
7684;DHT22;3884;48.616;12.872;2023-02-28T08:03:55;-0.60;1.00
7684;DHT22;3884;48.616;12.872;2023-02-28T08:06:24;-0.50;1.00
7684;DHT22;3884;48.616;12.872;2023-02-28T08:08:53;-0.40;1.00
7684;DHT22;3884;48.616;12.872;2023-02-28T08:11:21;-0.40;1.00
7684;DHT22;3884;48.616;12.872;2023-02-28T08:13:48;-0.40;1.00
7684;DHT22;3884;48.616;12.872;2023-02-28T08:16:16;-0.30;1.00
7684;DHT22;3884;48.616;12.872;2023-02-28T08:18:48;-0.30;1.00
7684;DHT22;3884;48.616;12.872;2023-02-28T08:21:15;-0.20;1.00
7684;DHT22;3884;48.616;12.872;2023-02-28T08:23:42;-0.10;1.00
7684;DHT22;3884;48.616;12.872;2023-02-28T08:26:10;-0.10;1.00
7684;DHT22;3884;48.616;12.872;2023-02-28T08:28:37;0.00;1.00
7684;DHT22;3884;48.616;12.872;2023-02-28T08:31:08;0.10;1.00
7684;DHT22;3884;48.616;12.872;2023-02-28T08:33:36;0.10;1.00
7684;DHT22;3884;48.616;12.872;2023-02-28T08:36:05;0.10;1.00
7684;DHT22;3884;48.616;12.872;2023-02-28T08:38:32;0.20;1.00
7684;DHT22;3884;48.616;12.872;2023-02-28T08:41:01;0.30;1.00
7684;DHT22;3884;48.616;12.872;2023-02-28T08:43:29;0.50;1.00
7684;DHT22;3884;48.616;12.872;2023-02-28T08:45:56;0.50;1.00
7684;DHT22;3884;48.616;12.872;2023-02-28T08:48:24;0.50;1.00
7684;DHT22;3884;48.616;12.872;2023-02-28T08:50:55;0.50;1.00
7684;DHT22;3884;48.616;12.872;2023-02-28T08:53:23;0.60;1.00
7684;DHT22;3884;48.616;12.872;2023-02-28T08:55:56;0.70;1.00
7684;DHT22;3884;48.616;12.872;2023-02-28T08:58:24;0.80;1.00
7684;DHT22;3884;48.616;12.872;2023-02-28T09:00:52;0.90;1.00
7684;DHT22;3884;48.616;12.872;2023-02-28T09:03:20;1.00;1.00
7684;DHT22;3884;48.616;12.872;2023-02-28T09:05:55;1.00;1.00
7684;DHT22;3884;48.616;12.872;2023-02-28T09:08:23;1.00;1.00
7684;DHT22;3884;48.616;12.872;2023-02-28T09:10:50;1.10;1.00
7684;DHT22;3884;48.616;12.872;2023-02-28T09:13:18;1.20;1.00
7684;DHT22;3884;48.616;12.872;2023-02-28T09:15:45;1.30;1.00
7684;DHT22;3884;48.616;12.872;2023-02-28T09:18:14;1.40;1.00
7684;DHT22;3884;48.616;12.872;2023-02-28T09:20:42;1.40;1.00
7684;DHT22;3884;48.616;12.872;2023-02-28T09:23:11;1.40;1.00
7684;DHT22;3884;48.616;12.872;2023-02-28T09:25:45;1.40;1.00
7684;DHT22;3884;48.616;12.872;2023-02-28T09:28:12;1.50;1.00
7684;DHT22;3884;48.616;12.872;2023-02-28T09:30:39;1.60;1.00
7684;DHT22;3884;48.616;12.872;2023-02-28T09:33:06;1.60;1.00
7684;DHT22;3884;48.616;12.872;2023-02-28T09:35:35;1.80;1.00
7684;DHT22;3884;48.616;12.872;2023-02-28T09:38:03;1.90;1.00
7684;DHT22;3884;48.616;12.872;2023-02-28T09:40:31;2.00;1.00
7684;DHT22;3884;48.616;12.872;2023-02-28T09:42:59;2.10;1.00
7684;DHT22;3884;48.616;12.872;2023-02-28T09:45:31;2.20;1.00
7684;DHT22;3884;48.616;12.872;2023-02-28T09:48:03;2.10;1.00
7684;DHT22;3884;48.616;12.872;2023-02-28T09:50:36;2.20;1.00
7684;DHT22;3884;48.616;12.872;2023-02-28T09:53:10;2.10;1.00
7684;DHT22;3884;48.616;12.872;2023-02-28T09:55:44;2.10;1.00
7684;DHT22;3884;48.616;12.872;2023-02-28T09:58:18;2.10;1.00
7684;DHT22;3884;48.616;12.872;2023-02-28T10:00:54;2.20;1.00
7684;DHT22;3884;48.616;12.872;2023-02-28T10:03:30;2.40;1.00
7684;DHT22;3884;48.616;12.872;2023-02-28T10:06:06;2.40;1.00
7684;DHT22;3884;48.616;12.872;2023-02-28T10:08:37;2.50;1.00
7684;DHT22;3884;48.616;12.872;2023-02-28T10:11:14;2.60;1.00
7684;DHT22;3884;48.616;12.872;2023-02-28T10:13:51;2.50;1.00
7684;DHT22;3884;48.616;12.872;2023-02-28T10:16:25;2.30;1.00
7684;DHT22;3884;48.616;12.872;2023-02-28T10:18:57;2.40;1.00
7684;DHT22;3884;48.616;12.872;2023-02-28T10:21:29;2.40;1.00
7684;DHT22;3884;48.616;12.872;2023-02-28T10:24:08;2.40;1.00
7684;DHT22;3884;48.616;12.872;2023-02-28T10:26:38;2.50;1.00
7684;DHT22;3884;48.616;12.872;2023-02-28T10:29:07;2.60;1.00
7684;DHT22;3884;48.616;12.872;2023-02-28T10:31:34;2.70;1.00
7684;DHT22;3884;48.616;12.872;2023-02-28T10:34:02;2.60;1.00
7684;DHT22;3884;48.616;12.872;2023-02-28T10:36:31;2.80;1.00
7684;DHT22;3884;48.616;12.872;2023-02-28T10:38:58;2.80;1.00
7684;DHT22;3884;48.616;12.872;2023-02-28T10:41:30;2.70;1.00
7684;DHT22;3884;48.616;12.872;2023-02-28T10:44:14;2.70;1.00
7684;DHT22;3884;48.616;12.872;2023-02-28T10:46:42;2.80;1.00
7684;DHT22;3884;48.616;12.872;2023-02-28T10:49:14;2.90;1.00
7684;DHT22;3884;48.616;12.872;2023-02-28T10:51:45;2.90;1.00
7684;DHT22;3884;48.616;12.872;2023-02-28T10:54:19;3.00;1.00
7684;DHT22;3884;48.616;12.872;2023-02-28T10:57:06;2.90;1.00
7684;DHT22;3884;48.616;12.872;2023-02-28T10:59:34;2.90;1.00
7684;DHT22;3884;48.616;12.872;2023-02-28T11:02:02;3.00;1.00
7684;DHT22;3884;48.616;12.872;2023-02-28T11:04:34;3.00;1.00
7684;DHT22;3884;48.616;12.872;2023-02-28T11:07:18;3.10;1.00
7684;DHT22;3884;48.616;12.872;2023-02-28T11:09:48;3.10;1.00
7684;DHT22;3884;48.616;12.872;2023-02-28T11:12:28;3.30;1.00
7684;DHT22;3884;48.616;12.872;2023-02-28T11:14:57;3.40;1.00
7684;DHT22;3884;48.616;12.872;2023-02-28T11:17:28;3.30;1.00
7684;DHT22;3884;48.616;12.872;2023-02-28T11:19:57;3.20;1.00
7684;DHT22;3884;48.616;12.872;2023-02-28T11:22:28;3.10;1.00
7684;DHT22;3884;48.616;12.872;2023-02-28T11:24:57;3.20;1.00
7684;DHT22;3884;48.616;12.872;2023-02-28T11:27:45;3.20;1.00
7684;DHT22;3884;48.616;12.872;2023-02-28T11:30:32;3.40;1.00
7684;DHT22;3884;48.616;12.872;2023-02-28T11:33:00;3.50;1.00
7684;DHT22;3884;48.616;12.872;2023-02-28T11:35:30;3.70;1.00
7684;DHT22;3884;48.616;12.872;2023-02-28T11:38:01;3.60;1.00
7684;DHT22;3884;48.616;12.872;2023-02-28T11:40:35;3.60;1.00
7684;DHT22;3884;48.616;12.872;2023-02-28T11:43:12;3.70;1.00
7684;DHT22;3884;48.616;12.872;2023-02-28T11:45:49;3.80;1.00
7684;DHT22;3884;48.616;12.872;2023-02-28T11:48:23;3.70;1.00
7684;DHT22;3884;48.616;12.872;2023-02-28T11:51:00;3.50;1.00
7684;DHT22;3884;48.616;12.872;2023-02-28T11:53:55;3.60;1.00
7684;DHT22;3884;48.616;12.872;2023-02-28T11:56:29;3.60;1.00
7684;DHT22;3884;48.616;12.872;2023-02-28T11:59:13;3.70;1.00
7684;DHT22;3884;48.616;12.872;2023-02-28T12:02:03;3.70;1.00
7684;DHT22;3884;48.616;12.872;2023-02-28T12:04:37;3.70;1.00
7684;DHT22;3884;48.616;12.872;2023-02-28T12:07:14;3.70;1.00
7684;DHT22;3884;48.616;12.872;2023-02-28T12:09:54;3.70;1.00
7684;DHT22;3884;48.616;12.872;2023-02-28T12:12:37;3.50;1.00
7684;DHT22;3884;48.616;12.872;2023-02-28T12:15:35;3.70;1.00
7684;DHT22;3884;48.616;12.872;2023-02-28T12:18:18;3.80;1.00
7684;DHT22;3884;48.616;12.872;2023-02-28T12:20:55;3.80;1.00
7684;DHT22;3884;48.616;12.872;2023-02-28T12:23:49;3.90;1.00
7684;DHT22;3884;48.616;12.872;2023-02-28T12:26:29;4.00;1.00
7684;DHT22;3884;48.616;12.872;2023-02-28T12:29:01;3.70;1.00
7684;DHT22;3884;48.616;12.872;2023-02-28T12:31:33;3.80;1.00
7684;DHT22;3884;48.616;12.872;2023-02-28T12:34:04;3.80;1.00
7684;DHT22;3884;48.616;12.872;2023-02-28T12:36:34;3.80;1.00
7684;DHT22;3884;48.616;12.872;2023-02-28T12:39:05;3.80;1.00
7684;DHT22;3884;48.616;12.872;2023-02-28T12:41:39;3.80;1.00
7684;DHT22;3884;48.616;12.872;2023-02-28T12:44:11;3.80;1.00
7684;DHT22;3884;48.616;12.872;2023-02-28T12:46:42;3.80;1.00
7684;DHT22;3884;48.616;12.872;2023-02-28T12:49:15;3.70;1.00
7684;DHT22;3884;48.616;12.872;2023-02-28T12:51:43;3.70;1.00
7684;DHT22;3884;48.616;12.872;2023-02-28T12:54:16;3.70;1.00
7684;DHT22;3884;48.616;12.872;2023-02-28T12:56:56;3.80;1.00
7684;DHT22;3884;48.616;12.872;2023-02-28T12:59:34;3.90;1.00
7684;DHT22;3884;48.616;12.872;2023-02-28T13:02:31;3.80;1.00
7684;DHT22;3884;48.616;12.872;2023-02-28T13:05:14;3.80;1.00
7684;DHT22;3884;48.616;12.872;2023-02-28T13:08:17;3.90;1.00
7684;DHT22;3884;48.616;12.872;2023-02-28T13:10:49;4.00;1.00
7684;DHT22;3884;48.616;12.872;2023-02-28T13:13:23;4.00;1.00
7684;DHT22;3884;48.616;12.872;2023-02-28T13:16:03;4.10;1.00
7684;DHT22;3884;48.616;12.872;2023-02-28T13:18:34;4.00;1.00
7684;DHT22;3884;48.616;12.872;2023-02-28T13:21:04;4.10;1.00
7684;DHT22;3884;48.616;12.872;2023-02-28T13:23:58;4.00;1.00
7684;DHT22;3884;48.616;12.872;2023-02-28T13:29:32;4.10;1.00
7684;DHT22;3884;48.616;12.872;2023-02-28T13:32:30;4.00;1.00
7684;DHT22;3884;48.616;12.872;2023-02-28T13:38:34;3.90;1.00
7684;DHT22;3884;48.616;12.872;2023-02-28T13:44:10;4.10;1.00
7684;DHT22;3884;48.616;12.872;2023-02-28T13:50:15;4.20;1.00
7684;DHT22;3884;48.616;12.872;2023-02-28T13:52:51;4.30;1.00
7684;DHT22;3884;48.616;12.872;2023-02-28T13:55:28;4.40;1.00
7684;DHT22;3884;48.616;12.872;2023-02-28T13:58:16;4.40;1.00
7684;DHT22;3884;48.616;12.872;2023-02-28T14:01:05;4.50;1.00
7684;DHT22;3884;48.616;12.872;2023-02-28T14:03:50;4.60;1.00
7684;DHT22;3884;48.616;12.872;2023-02-28T14:06:26;4.60;1.00
7684;DHT22;3884;48.616;12.872;2023-02-28T14:08:57;4.50;1.00
7684;DHT22;3884;48.616;12.872;2023-02-28T14:11:28;4.60;1.00
7684;DHT22;3884;48.616;12.872;2023-02-28T14:13:55;4.70;1.00
7684;DHT22;3884;48.616;12.872;2023-02-28T14:16:25;4.70;1.00
7684;DHT22;3884;48.616;12.872;2023-02-28T14:18:58;4.80;1.00
7684;DHT22;3884;48.616;12.872;2023-02-28T14:21:29;5.00;1.00
7684;DHT22;3884;48.616;12.872;2023-02-28T14:27:35;5.20;1.00
7684;DHT22;3884;48.616;12.872;2023-02-28T14:33:05;5.10;1.00
7684;DHT22;3884;48.616;12.872;2023-02-28T14:36:00;5.10;1.00
7684;DHT22;3884;48.616;12.872;2023-02-28T14:38:30;5.00;1.00
7684;DHT22;3884;48.616;12.872;2023-02-28T14:41:02;4.90;1.00
7684;DHT22;3884;48.616;12.872;2023-02-28T14:43:30;4.90;1.00
7684;DHT22;3884;48.616;12.872;2023-02-28T14:46:00;4.70;1.00
7684;DHT22;3884;48.616;12.872;2023-02-28T14:48:27;4.60;1.00
7684;DHT22;3884;48.616;12.872;2023-02-28T14:50:58;4.60;1.00
7684;DHT22;3884;48.616;12.872;2023-02-28T14:53:28;4.50;1.00
7684;DHT22;3884;48.616;12.872;2023-02-28T14:55:56;4.40;1.00
7684;DHT22;3884;48.616;12.872;2023-02-28T14:58:25;4.40;1.00
7684;DHT22;3884;48.616;12.872;2023-02-28T15:00:55;4.50;1.00
7684;DHT22;3884;48.616;12.872;2023-02-28T15:03:24;4.60;1.00
7684;DHT22;3884;48.616;12.872;2023-02-28T15:06:00;4.80;1.00
7684;DHT22;3884;48.616;12.872;2023-02-28T15:08:28;4.90;1.00
7684;DHT22;3884;48.616;12.872;2023-02-28T15:10:57;4.90;1.00
7684;DHT22;3884;48.616;12.872;2023-02-28T15:13:30;4.90;1.00
7684;DHT22;3884;48.616;12.872;2023-02-28T15:16:02;4.70;1.00
7684;DHT22;3884;48.616;12.872;2023-02-28T15:18:36;4.50;1.00
7684;DHT22;3884;48.616;12.872;2023-02-28T15:21:07;4.30;1.00
7684;DHT22;3884;48.616;12.872;2023-02-28T15:23:36;4.00;1.00
7684;DHT22;3884;48.616;12.872;2023-02-28T15:26:04;3.90;1.00
7684;DHT22;3884;48.616;12.872;2023-02-28T15:28:31;3.70;1.00
7684;DHT22;3884;48.616;12.872;2023-02-28T15:31:01;3.60;1.00
7684;DHT22;3884;48.616;12.872;2023-02-28T15:33:29;3.60;1.00
7684;DHT22;3884;48.616;12.872;2023-02-28T15:36:12;3.60;1.00
7684;DHT22;3884;48.616;12.872;2023-02-28T15:38:40;3.50;1.00
7684;DHT22;3884;48.616;12.872;2023-02-28T15:41:22;3.50;1.00
7684;DHT22;3884;48.616;12.872;2023-02-28T15:44:13;3.40;1.00
7684;DHT22;3884;48.616;12.872;2023-02-28T15:46:43;3.40;1.00
7684;DHT22;3884;48.616;12.872;2023-02-28T15:49:19;3.40;1.00
7684;DHT22;3884;48.616;12.872;2023-02-28T15:51:49;3.30;1.00
7684;DHT22;3884;48.616;12.872;2023-02-28T15:54:20;3.30;1.00
7684;DHT22;3884;48.616;12.872;2023-02-28T15:56:51;3.30;1.00
7684;DHT22;3884;48.616;12.872;2023-02-28T15:59:21;3.30;1.00
7684;DHT22;3884;48.616;12.872;2023-02-28T16:02:03;3.20;1.00
7684;DHT22;3884;48.616;12.872;2023-02-28T16:04:30;3.10;1.00
7684;DHT22;3884;48.616;12.872;2023-02-28T16:07:03;3.10;1.00
7684;DHT22;3884;48.616;12.872;2023-02-28T16:09:30;3.00;1.00
7684;DHT22;3884;48.616;12.872;2023-02-28T16:12:00;3.10;1.00
7684;DHT22;3884;48.616;12.872;2023-02-28T16:14:29;2.90;1.00
7684;DHT22;3884;48.616;12.872;2023-02-28T16:17:04;2.90;1.00
7684;DHT22;3884;48.616;12.872;2023-02-28T16:19:31;2.90;1.00
7684;DHT22;3884;48.616;12.872;2023-02-28T16:21:59;2.80;1.00
7684;DHT22;3884;48.616;12.872;2023-02-28T16:24:28;2.70;1.00
7684;DHT22;3884;48.616;12.872;2023-02-28T16:26:56;2.60;1.00
7684;DHT22;3884;48.616;12.872;2023-02-28T16:29:25;2.60;1.00
7684;DHT22;3884;48.616;12.872;2023-02-28T16:31:53;2.60;1.00
7684;DHT22;3884;48.616;12.872;2023-02-28T16:34:21;2.60;1.00
7684;DHT22;3884;48.616;12.872;2023-02-28T16:36:49;2.60;1.00
7684;DHT22;3884;48.616;12.872;2023-02-28T16:39:16;2.60;1.00
7684;DHT22;3884;48.616;12.872;2023-02-28T16:41:48;2.60;1.00
7684;DHT22;3884;48.616;12.872;2023-02-28T16:44:23;2.50;1.00
7684;DHT22;3884;48.616;12.872;2023-02-28T16:46:53;2.40;1.00
7684;DHT22;3884;48.616;12.872;2023-02-28T16:49:20;2.30;1.00
7684;DHT22;3884;48.616;12.872;2023-02-28T16:51:47;2.30;1.00
7684;DHT22;3884;48.616;12.872;2023-02-28T16:54:14;2.30;1.00
7684;DHT22;3884;48.616;12.872;2023-02-28T16:56:44;2.20;1.00
7684;DHT22;3884;48.616;12.872;2023-02-28T16:59:21;2.20;1.00
7684;DHT22;3884;48.616;12.872;2023-02-28T17:01:48;2.10;1.00